Time;durP1;ratioP1;P1;durP2;ratioP2;P2;SDS_P1;SDS_P2;PMS_P1;PMS_P2;Temp;Humidity;BMP_temperature;BMP_pressure;BME280_temperature;BME280_humidity;BME280_pressure;Samples;Min_cycle;Max_cycle;Signal;HPM_P1;HPM_P2
2021/06/29 00:00:41;;;;;;;0.68;0.68;;;12.30;99.90;;;;;;5044145;28;20189;-70
2021/06/29 00:03:08;;;;;;;0.77;0.75;;;12.30;99.90;;;;;;5044632;28;20803;-71
2021/06/29 00:05:36;;;;;;;0.80;0.80;;;12.20;99.90;;;;;;5043628;28;20189;-71
2021/06/29 00:08:03;;;;;;;0.60;0.60;;;12.20;99.90;;;;;;5039637;28;20190;-71
2021/06/29 00:10:30;;;;;;;2.75;1.70;;;12.20;99.90;;;;;;5041410;28;20660;-71
2021/06/29 00:12:56;;;;;;;1.08;1.00;;;12.10;99.90;;;;;;5045678;28;20917;-71
2021/06/29 00:15:24;;;;;;;0.60;0.60;;;12.20;99.90;;;;;;5041624;28;20687;-70
2021/06/29 00:17:50;;;;;;;1.02;0.60;;;12.10;99.90;;;;;;5042979;28;20701;-70
2021/06/29 00:20:17;;;;;;;0.68;0.68;;;12.10;99.90;;;;;;5043992;28;20276;-71
2021/06/29 00:22:44;;;;;;;0.82;0.82;;;12.10;99.90;;;;;;5045125;28;20189;-71
2021/06/29 00:25:11;;;;;;;1.65;1.55;;;12.00;99.90;;;;;;5042862;28;20597;-71
2021/06/29 00:27:38;;;;;;;0.80;0.80;;;12.00;99.90;;;;;;5044109;28;20244;-71
2021/06/29 00:30:05;;;;;;;1.10;1.00;;;12.00;99.90;;;;;;5040018;28;20259;-71
2021/06/29 00:32:31;;;;;;;0.82;0.82;;;12.00;99.90;;;;;;5039605;28;20232;-71
2021/06/29 00:34:56;;;;;;;0.60;0.60;;;11.90;99.90;;;;;;5044846;28;20222;-71
2021/06/29 00:37:23;;;;;;;1.05;0.93;;;11.80;99.90;;;;;;5042169;28;20272;-71
2021/06/29 00:39:48;;;;;;;1.15;0.85;;;11.80;99.90;;;;;;5040748;28;20927;-71
2021/06/29 00:42:14;;;;;;;0.80;0.80;;;11.80;99.90;;;;;;5038168;28;20324;-71
2021/06/29 00:44:40;;;;;;;0.70;0.70;;;11.70;99.90;;;;;;5043275;28;20263;-70
2021/06/29 00:47:10;;;;;;;0.63;0.63;;;11.70;99.90;;;;;;5040677;28;20304;-71
2021/06/29 00:49:36;;;;;;;1.42;1.33;;;11.70;99.90;;;;;;5042992;28;20542;-70
2021/06/29 00:52:03;;;;;;;6.40;1.05;;;11.70;99.90;;;;;;5033349;28;20675;-71
2021/06/29 00:54:30;;;;;;;0.70;0.68;;;11.70;99.90;;;;;;5036605;28;20251;-71
2021/06/29 00:56:55;;;;;;;0.85;0.85;;;11.60;99.90;;;;;;5037953;28;20270;-71
2021/06/29 00:59:21;;;;;;;1.85;1.58;;;11.50;99.90;;;;;;5036750;28;20990;-71
2021/06/29 01:01:47;;;;;;;0.88;0.88;;;11.50;99.90;;;;;;5039078;28;20277;-71
2021/06/29 01:04:12;;;;;;;0.70;0.68;;;11.50;99.90;;;;;;5037294;28;20989;-71
2021/06/29 01:06:38;;;;;;;0.70;0.70;;;11.40;99.90;;;;;;5039132;28;20197;-70
2021/06/29 01:09:05;;;;;;;0.60;0.60;;;11.40;99.90;;;;;;5037319;28;20596;-71
2021/06/29 01:11:31;;;;;;;0.60;0.60;;;11.40;99.90;;;;;;5034900;28;20232;-71
2021/06/29 01:14:10;;;;;;;0.68;0.68;;;11.30;99.90;;;;;;5037732;28;20313;-71
2021/06/29 01:16:36;;;;;;;2.67;1.65;;;11.30;99.90;;;;;;5037215;28;20748;-70
2021/06/29 01:19:01;;;;;;;0.60;0.60;;;11.30;99.90;;;;;;5038931;28;20214;-71
2021/06/29 01:21:42;;;;;;;1.80;0.95;;;11.40;99.90;;;;;;5036017;28;20202;-71
2021/06/29 01:24:14;;;;;;;0.93;0.93;;;11.30;99.90;;;;;;5037093;28;20691;-71
2021/06/29 01:26:46;;;;;;;0.95;0.93;;;11.30;99.90;;;;;;5038728;28;20197;-71
2021/06/29 01:29:12;;;;;;;2.38;0.93;;;11.30;99.90;;;;;;5038051;28;20221;-71
2021/06/29 01:31:38;;;;;;;3.30;1.30;;;11.30;99.90;;;;;;5036547;28;20225;-70
2021/06/29 01:34:05;;;;;;;0.93;0.80;;;11.30;99.90;;;;;;5039586;28;20204;-71
2021/06/29 01:36:35;;;;;;;0.85;0.85;;;11.20;99.90;;;;;;5036546;28;20204;-70
2021/06/29 01:39:04;;;;;;;0.88;0.88;;;11.20;99.90;;;;;;5037370;28;20193;-70
2021/06/29 01:41:30;;;;;;;0.60;0.60;;;11.20;99.90;;;;;;5038213;28;20198;-71
2021/06/29 01:43:59;;;;;;;1.10;1.10;;;11.20;99.90;;;;;;5038243;28;20205;-71
2021/06/29 01:46:28;;;;;;;0.73;0.73;;;11.20;99.90;;;;;;5034183;28;20221;-70
2021/06/29 01:48:55;;;;;;;0.70;0.70;;;11.20;99.90;;;;;;5037669;28;20668;-70
2021/06/29 01:51:22;;;;;;;2.47;1.00;;;11.20;99.90;;;;;;5034713;28;21073;-70
2021/06/29 01:53:52;;;;;;;0.50;0.50;;;11.20;99.90;;;;;;5035933;28;20193;-71
2021/06/29 01:56:25;;;;;;;1.20;1.13;;;11.20;99.90;;;;;;5038093;28;20917;-70
2021/06/29 01:58:57;;;;;;;0.82;0.82;;;11.20;99.90;;;;;;5035763;28;20225;-71
2021/06/29 02:01:23;;;;;;;2.80;1.65;;;11.10;99.90;;;;;;5034614;28;20208;-71
2021/06/29 02:03:49;;;;;;;1.00;1.00;;;11.10;99.90;;;;;;5035988;28;20221;-70
2021/06/29 02:06:15;;;;;;;0.70;0.70;;;11.10;99.90;;;;;;5033899;28;20193;-70
2021/06/29 02:08:42;;;;;;;0.77;0.77;;;11.10;99.90;;;;;;5037158;28;20205;-70
2021/06/29 02:11:08;;;;;;;2.13;1.35;;;11.10;99.90;;;;;;5036463;28;20185;-71
2021/06/29 02:13:34;;;;;;;0.82;0.82;;;11.10;99.90;;;;;;5036435;28;20294;-70
2021/06/29 02:16:00;;;;;;;0.75;0.75;;;11.10;99.90;;;;;;5037852;28;20705;-70
2021/06/29 02:18:27;;;;;;;0.60;0.60;;;11.10;99.90;;;;;;5035358;28;20206;-70
2021/06/29 02:20:53;;;;;;;0.95;0.95;;;11.10;99.90;;;;;;5031619;28;20208;-71
2021/06/29 02:23:19;;;;;;;0.95;0.95;;;11.10;99.90;;;;;;5035865;28;20209;-70
2021/06/29 02:25:45;;;;;;;0.60;0.60;;;11.10;99.90;;;;;;5038884;28;20193;-70
2021/06/29 02:28:11;;;;;;;0.52;0.52;;;11.10;99.90;;;;;;5037401;28;20220;-70
2021/06/29 02:30:37;;;;;;;0.98;0.98;;;11.10;99.90;;;;;;5034803;28;20622;-70
2021/06/29 02:33:03;;;;;;;0.70;0.70;;;11.10;99.90;;;;;;5037614;28;20192;-70
2021/06/29 02:35:29;;;;;;;0.80;0.80;;;11.20;99.90;;;;;;5036904;28;20206;-70
2021/06/29 02:37:56;;;;;;;1.80;1.65;;;11.20;99.90;;;;;;5036258;28;20189;-71
2021/06/29 02:40:22;;;;;;;4.53;1.08;;;11.20;99.90;;;;;;5034708;28;20225;-71
2021/06/29 02:42:47;;;;;;;2.13;1.08;;;11.30;99.90;;;;;;5037420;28;20281;-70
2021/06/29 02:45:18;;;;;;;0.73;0.73;;;11.30;99.90;;;;;;5032351;28;20751;-70
2021/06/29 02:47:44;;;;;;;0.68;0.68;;;11.40;99.90;;;;;;5036404;28;20196;-70
2021/06/29 02:50:11;;;;;;;0.90;0.90;;;11.40;99.90;;;;;;5037577;28;20206;-71
2021/06/29 02:52:37;;;;;;;2.05;0.98;;;11.40;99.90;;;;;;5035289;28;20198;-70
2021/06/29 02:55:05;;;;;;;1.95;1.08;;;11.50;99.90;;;;;;5038085;28;20194;-70
2021/06/29 02:57:31;;;;;;;2.92;2.00;;;11.60;99.90;;;;;;5036020;28;20220;-70
2021/06/29 02:59:57;;;;;;;0.77;0.77;;;11.70;99.90;;;;;;5035233;28;20205;-71
2021/06/29 03:02:23;;;;;;;1.15;1.13;;;11.80;99.90;;;;;;5035837;28;20212;-70
2021/06/29 03:04:49;;;;;;;0.68;0.68;;;11.80;99.90;;;;;;5035084;28;20216;-71
2021/06/29 03:07:15;;;;;;;1.02;1.02;;;11.90;99.90;;;;;;5037546;28;20281;-70
2021/06/29 03:09:40;;;;;;;0.47;0.47;;;12.00;99.90;;;;;;5033929;28;21996;-70
2021/06/29 03:12:07;;;;;;;0.70;0.70;;;12.00;99.90;;;;;;5036210;28;20285;-70
2021/06/29 03:14:38;;;;;;;1.20;1.13;;;12.20;99.90;;;;;;5036376;28;20971;-70
2021/06/29 03:17:04;;;;;;;0.85;0.85;;;12.20;99.90;;;;;;5036805;28;20205;-71
2021/06/29 03:19:32;;;;;;;0.80;0.80;;;12.30;99.90;;;;;;5034200;28;20202;-71
2021/06/29 03:21:58;;;;;;;1.08;0.85;;;12.40;99.90;;;;;;5032258;28;20561;-70
2021/06/29 03:24:25;;;;;;;1.80;1.65;;;12.40;99.90;;;;;;5035090;28;20246;-71
2021/06/29 03:26:50;;;;;;;0.73;0.73;;;12.50;99.90;;;;;;5037450;28;20259;-71
2021/06/29 03:29:16;;;;;;;0.70;0.70;;;12.60;99.90;;;;;;5038395;28;20193;-71
2021/06/29 03:31:42;;;;;;;1.25;1.17;;;12.60;99.90;;;;;;5036505;28;20198;-71
2021/06/29 03:34:08;;;;;;;1.27;1.15;;;12.60;99.90;;;;;;5040237;28;20214;-71
2021/06/29 03:36:34;;;;;;;1.35;1.25;;;12.70;99.90;;;;;;5035493;28;20300;-70
2021/06/29 03:39:00;;;;;;;0.70;0.70;;;12.80;99.90;;;;;;5041341;28;20239;-71
2021/06/29 03:41:26;;;;;;;0.50;0.50;;;12.90;99.90;;;;;;5040858;28;20209;-71
2021/06/29 03:43:52;;;;;;;1.10;1.02;;;13.00;99.90;;;;;;5040371;28;20587;-71
2021/06/29 03:46:18;;;;;;;1.45;1.35;;;13.00;99.90;;;;;;5037206;28;20209;-71
2021/06/29 03:48:44;;;;;;;1.13;1.02;;;13.10;99.90;;;;;;5039359;28;20299;-71
2021/06/29 03:51:09;;;;;;;1.60;1.00;;;13.20;99.90;;;;;;5040671;28;20202;-70
2021/06/29 03:53:35;;;;;;;0.75;0.75;;;13.30;99.90;;;;;;5038484;28;20241;-71
2021/06/29 03:56:01;;;;;;;1.15;1.02;;;13.30;99.90;;;;;;5037920;28;20215;-71
2021/06/29 03:58:27;;;;;;;0.60;0.60;;;13.40;99.90;;;;;;5035380;28;20247;-71
2021/06/29 04:00:53;;;;;;;0.80;0.80;;;13.50;99.90;;;;;;5037034;28;20263;-71
2021/06/29 04:03:18;;;;;;;1.10;1.00;;;13.60;99.90;;;;;;5039882;28;20616;-71
2021/06/29 04:05:44;;;;;;;5.95;1.50;;;13.60;99.90;;;;;;5039075;28;20528;-70
2021/06/29 04:08:10;;;;;;;0.68;0.68;;;13.70;99.90;;;;;;5038813;28;20197;-71
2021/06/29 04:10:35;;;;;;;1.85;1.40;;;13.80;99.90;;;;;;5039686;28;20200;-71
2021/06/29 04:13:01;;;;;;;2.63;1.50;;;13.80;99.90;;;;;;5036807;28;20208;-71
2021/06/29 04:15:27;;;;;;;1.80;0.75;;;13.90;99.90;;;;;;5034373;28;20206;-71
2021/06/29 04:17:53;;;;;;;0.88;0.88;;;13.90;99.90;;;;;;5039592;28;20200;-71
2021/06/29 04:20:18;;;;;;;2.10;1.63;;;14.00;99.90;;;;;;5036641;28;20204;-72
2021/06/29 04:22:44;;;;;;;0.77;0.77;;;14.00;99.90;;;;;;5038281;28;20398;-71
2021/06/29 04:25:11;;;;;;;2.33;1.48;;;14.00;99.90;;;;;;5038845;28;20197;-71
2021/06/29 04:27:36;;;;;;;1.48;1.38;;;14.00;99.90;;;;;;5039244;28;20270;-71
2021/06/29 04:30:05;;;;;;;1.98;1.80;;;14.10;99.90;;;;;;5037567;28;20330;-71
2021/06/29 04:32:30;;;;;;;1.60;0.95;;;14.10;99.90;;;;;;5039614;28;20193;-71
2021/06/29 04:34:56;;;;;;;2.75;1.67;;;14.10;99.90;;;;;;5040689;28;20205;-71
2021/06/29 04:37:22;;;;;;;20.83;1.60;;;14.10;99.90;;;;;;5038270;28;20201;-71
2021/06/29 04:39:48;;;;;;;1.67;1.20;;;14.10;99.90;;;;;;5040190;28;20198;-71
2021/06/29 04:42:13;;;;;;;6.65;1.35;;;14.20;99.90;;;;;;5037271;28;20197;-71
2021/06/29 04:44:40;;;;;;;1.20;1.15;;;14.20;99.90;;;;;;5039144;28;20209;-71
2021/06/29 04:47:07;;;;;;;0.73;0.73;;;14.20;99.90;;;;;;5037828;28;20251;-71
2021/06/29 04:49:33;;;;;;;1.42;0.93;;;14.30;99.90;;;;;;5036820;28;20220;-71
2021/06/29 04:51:58;;;;;;;0.93;0.93;;;14.30;99.90;;;;;;5035831;28;20616;-71
2021/06/29 04:54:24;;;;;;;1.10;1.00;;;14.30;99.90;;;;;;5035560;28;20292;-70
2021/06/29 04:56:50;;;;;;;1.88;1.42;;;14.30;99.90;;;;;;5030167;28;20653;-71
2021/06/29 04:59:16;;;;;;;0.63;0.63;;;14.20;99.90;;;;;;5038674;28;20284;-70
2021/06/29 05:01:42;;;;;;;1.23;1.05;;;14.20;99.90;;;;;;5032401;28;20205;-70
2021/06/29 05:04:08;;;;;;;2.20;1.52;;;14.30;99.90;;;;;;5033709;28;20221;-71
2021/06/29 05:06:34;;;;;;;0.70;0.70;;;14.40;99.90;;;;;;5033185;28;20212;-71
2021/06/29 05:09:00;;;;;;;2.03;1.75;;;14.40;99.90;;;;;;5033539;28;20217;-70
2021/06/29 05:11:25;;;;;;;3.67;1.70;;;14.50;99.90;;;;;;5038005;28;20217;-70
2021/06/29 05:13:51;;;;;;;1.05;0.95;;;14.50;99.90;;;;;;5040567;28;20189;-70
2021/06/29 05:16:17;;;;;;;0.82;0.82;;;14.60;99.90;;;;;;5031018;28;20197;-70
2021/06/29 05:18:43;;;;;;;1.60;1.50;;;14.60;99.90;;;;;;5036747;28;20659;-71
2021/06/29 05:21:08;;;;;;;3.95;1.65;;;14.60;99.90;;;;;;5039154;28;20252;-71
2021/06/29 05:23:34;;;;;;;1.10;1.10;;;14.70;99.90;;;;;;5032175;28;20247;-70
2021/06/29 05:26:00;;;;;;;3.05;1.02;;;14.80;99.90;;;;;;5034955;28;20232;-72
2021/06/29 05:28:26;;;;;;;0.85;0.73;;;14.90;99.90;;;;;;5032304;28;20677;-70
2021/06/29 05:30:51;;;;;;;0.70;0.70;;;14.80;99.90;;;;;;5033323;28;20198;-70
2021/06/29 05:33:18;;;;;;;1.48;1.38;;;14.90;99.90;;;;;;5036207;28;20290;-71
2021/06/29 05:35:45;;;;;;;1.13;0.88;;;14.80;99.90;;;;;;5037965;28;20247;-71
2021/06/29 05:38:11;;;;;;;2.30;1.77;;;14.80;99.90;;;;;;5035637;28;20205;-71
2021/06/29 05:40:37;;;;;;;1.25;1.10;;;14.80;99.90;;;;;;5035564;28;20193;-71
2021/06/29 05:43:03;;;;;;;16.73;1.75;;;14.70;99.90;;;;;;5025919;28;20282;-71
2021/06/29 05:45:29;;;;;;;1.85;1.52;;;14.70;99.90;;;;;;5033393;28;20280;-69
2021/06/29 05:47:56;;;;;;;0.75;0.75;;;14.60;99.90;;;;;;5030602;28;20189;-71
2021/06/29 05:50:22;;;;;;;11.73;1.52;;;14.70;99.90;;;;;;5036863;28;20284;-71
2021/06/29 05:52:48;;;;;;;1.10;0.77;;;14.70;99.90;;;;;;5031869;28;20201;-71
2021/06/29 05:55:14;;;;;;;0.70;0.70;;;14.70;99.90;;;;;;5033097;28;20278;-71
2021/06/29 05:57:40;;;;;;;0.98;0.98;;;14.80;99.90;;;;;;5033370;28;20223;-71
2021/06/29 06:00:09;;;;;;;1.17;0.85;;;14.80;99.90;;;;;;5030024;28;20228;-69
2021/06/29 06:02:35;;;;;;;20.50;0.88;;;14.80;99.90;;;;;;5033785;28;20232;-70
2021/06/29 06:05:01;;;;;;;0.80;0.55;;;14.90;99.90;;;;;;5028552;28;20255;-70
2021/06/29 06:07:27;;;;;;;2.50;1.30;;;14.90;99.90;;;;;;5036970;28;20193;-70
2021/06/29 06:09:52;;;;;;;1.02;1.00;;;14.90;99.90;;;;;;5034076;28;20198;-71
2021/06/29 06:12:18;;;;;;;7.85;1.42;;;14.90;99.90;;;;;;5033875;28;20755;-71
2021/06/29 06:14:44;;;;;;;1.52;1.23;;;15.00;99.90;;;;;;5027674;28;20259;-69
2021/06/29 06:17:09;;;;;;;0.75;0.75;;;15.00;99.90;;;;;;5032274;28;20201;-70
2021/06/29 06:19:35;;;;;;;0.75;0.75;;;15.10;99.90;;;;;;5033387;28;21523;-71
2021/06/29 06:22:00;;;;;;;1.20;0.90;;;15.30;99.90;;;;;;5033064;28;20288;-69
2021/06/29 06:24:26;;;;;;;1.35;1.00;;;15.50;99.90;;;;;;5031924;28;20249;-70
2021/06/29 06:26:52;;;;;;;1.10;0.85;;;15.60;99.90;;;;;;5036936;28;20189;-70
2021/06/29 06:29:18;;;;;;;1.00;0.88;;;15.70;99.90;;;;;;5034898;28;20279;-70
2021/06/29 06:31:43;;;;;;;0.73;0.73;;;15.80;99.90;;;;;;5033560;28;20284;-70
2021/06/29 06:34:09;;;;;;;2.17;1.42;;;15.90;99.90;;;;;;5035038;28;20232;-70
2021/06/29 06:36:35;;;;;;;0.60;0.60;;;15.90;99.90;;;;;;5034122;28;20232;-71
2021/06/29 06:39:00;;;;;;;0.77;0.77;;;15.90;99.90;;;;;;5033315;28;20239;-70
2021/06/29 06:41:26;;;;;;;1.80;1.45;;;15.90;99.90;;;;;;5035775;28;20739;-70
2021/06/29 06:43:52;;;;;;;0.52;0.52;;;15.80;99.90;;;;;;5040813;28;20209;-70
2021/06/29 06:46:18;;;;;;;2.78;1.25;;;15.90;99.90;;;;;;5034760;28;20200;-70
2021/06/29 06:48:43;;;;;;;1.20;0.82;;;15.90;99.90;;;;;;5030244;28;20342;-70
2021/06/29 06:51:09;;;;;;;2.25;1.27;;;16.00;99.90;;;;;;5025579;28;20193;-71
2021/06/29 06:53:35;;;;;;;2.60;1.35;;;16.10;99.90;;;;;;5032651;28;20193;-71
2021/06/29 06:56:01;;;;;;;0.70;0.70;;;16.10;99.90;;;;;;5037039;28;20281;-70
2021/06/29 06:58:27;;;;;;;1.67;1.05;;;16.10;99.90;;;;;;5033586;28;20198;-69
2021/06/29 07:00:54;;;;;;;0.95;0.95;;;16.20;99.90;;;;;;5033895;28;20206;-72
2021/06/29 07:03:19;;;;;;;0.50;0.50;;;16.30;99.90;;;;;;5036160;28;20240;-71
2021/06/29 07:05:45;;;;;;;0.68;0.60;;;16.40;99.90;;;;;;5026405;28;20198;-70
2021/06/29 07:08:11;;;;;;;1.05;0.63;;;16.40;99.90;;;;;;5034095;28;20250;-71
2021/06/29 07:10:37;;;;;;;0.35;0.35;;;16.50;99.90;;;;;;5037418;28;20213;-72
2021/06/29 07:13:02;;;;;;;1.08;1.02;;;16.50;99.90;;;;;;5036665;28;20216;-70
2021/06/29 07:15:29;;;;;;;0.85;0.40;;;16.50;99.90;;;;;;5041290;28;20204;-71
2021/06/29 07:17:55;;;;;;;1.67;0.93;;;16.30;99.90;;;;;;5034060;28;20250;-71
2021/06/29 07:20:21;;;;;;;0.95;0.93;;;16.30;99.90;;;;;;5041150;28;20238;-70
2021/06/29 07:22:47;;;;;;;0.40;0.40;;;16.40;99.90;;;;;;5034649;28;20194;-71
2021/06/29 07:25:13;;;;;;;2.63;1.65;;;16.30;99.90;;;;;;5033221;28;20206;-70
2021/06/29 07:27:39;;;;;;;1.08;0.93;;;16.30;99.90;;;;;;5038749;28;20220;-70
2021/06/29 07:30:07;;;;;;;0.45;0.45;;;16.20;99.90;;;;;;5034370;28;20251;-69
2021/06/29 07:32:33;;;;;;;1.70;1.20;;;16.20;99.90;;;;;;5034565;28;20217;-71
2021/06/29 07:34:58;;;;;;;0.35;0.35;;;16.10;99.90;;;;;;5034951;28;20340;-71
2021/06/29 07:37:24;;;;;;;1.95;1.30;;;16.20;99.90;;;;;;5036859;28;20282;-71
2021/06/29 07:39:50;;;;;;;0.60;0.60;;;16.20;99.90;;;;;;5035876;28;20280;-72
2021/06/29 07:42:16;;;;;;;0.65;0.65;;;16.20;99.90;;;;;;5038396;28;20559;-72
2021/06/29 07:44:41;;;;;;;2.42;1.35;;;16.10;99.90;;;;;;5032171;28;20202;-71
2021/06/29 07:47:07;;;;;;;0.50;0.50;;;16.10;99.90;;;;;;5037090;28;20189;-71
2021/06/29 07:49:33;;;;;;;0.70;0.70;;;16.10;99.90;;;;;;5030342;28;20310;-71
2021/06/29 07:51:58;;;;;;;0.65;0.65;;;16.00;99.90;;;;;;5032155;28;20300;-71
2021/06/29 07:54:24;;;;;;;3.22;0.60;;;15.90;99.90;;;;;;5034565;28;20296;-72
2021/06/29 07:56:50;;;;;;;0.50;0.50;;;16.00;99.90;;;;;;5036855;28;20927;-71
2021/06/29 07:59:16;;;;;;;2.75;1.35;;;16.10;99.90;;;;;;5033359;28;20713;-72
2021/06/29 08:01:41;;;;;;;0.60;0.60;;;16.10;99.90;;;;;;5032861;28;20201;-72
2021/06/29 08:04:07;;;;;;;2.13;1.58;;;16.20;99.90;;;;;;5045564;28;20225;-70
2021/06/29 08:06:33;;;;;;;3.28;1.23;;;16.10;99.90;;;;;;5036305;28;20531;-72
2021/06/29 08:08:58;;;;;;;1.13;1.02;;;16.30;99.90;;;;;;5037161;28;20196;-72
2021/06/29 08:11:24;;;;;;;0.77;0.77;;;16.70;99.90;;;;;;5039698;28;20198;-72
2021/06/29 08:13:50;;;;;;;2.50;0.75;;;17.30;99.90;;;;;;5038837;28;20232;-72
2021/06/29 08:16:16;;;;;;;0.40;0.40;;;17.90;99.90;;;;;;5034467;28;20198;-73
2021/06/29 08:18:41;;;;;;;1.90;1.33;;;18.30;99.90;;;;;;5033116;28;20291;-73
2021/06/29 08:21:08;;;;;;;0.80;0.80;;;18.60;99.90;;;;;;5034187;28;20204;-73
2021/06/29 08:23:34;;;;;;;0.40;0.40;;;18.80;99.90;;;;;;5037020;28;20285;-72
2021/06/29 08:26:00;;;;;;;0.70;0.60;;;19.00;99.90;;;;;;5033519;28;20799;-73
2021/06/29 08:28:27;;;;;;;0.55;0.55;;;19.30;99.90;;;;;;5041322;28;20570;-75
2021/06/29 08:30:53;;;;;;;0.55;0.55;;;19.30;99.90;;;;;;5036410;28;20664;-73
2021/06/29 08:33:21;;;;;;;0.85;0.73;;;19.30;99.90;;;;;;5035725;28;20198;-75
2021/06/29 08:35:49;;;;;;;1.42;1.33;;;19.30;99.90;;;;;;5036852;28;20193;-75
2021/06/29 08:38:16;;;;;;;3.40;0.77;;;19.00;99.90;;;;;;5033019;28;20213;-74
2021/06/29 08:40:42;;;;;;;4.03;1.10;;;18.80;99.90;;;;;;5039847;28;20208;-73
2021/06/29 08:43:11;;;;;;;1.20;0.93;;;18.80;99.90;;;;;;5035911;28;20202;-72
2021/06/29 08:45:37;;;;;;;0.65;0.57;;;18.90;99.90;;;;;;5034624;28;20197;-72
2021/06/29 08:48:04;;;;;;;3.20;0.77;;;19.20;99.90;;;;;;5036659;28;20691;-72
2021/06/29 08:50:31;;;;;;;0.60;0.60;;;19.10;99.90;;;;;;5034753;28;20857;-73
2021/06/29 08:53:08;;;;;;;0.90;0.77;;;19.10;99.90;;;;;;5031666;28;20216;-74
2021/06/29 08:55:41;;;;;;;1.75;1.17;;;18.80;99.90;;;;;;5030595;28;20815;-74
2021/06/29 08:58:06;;;;;;;0.77;0.77;;;19.10;99.90;;;;;;5033146;28;20190;-73
2021/06/29 09:00:33;;;;;;;0.45;0.45;;;19.40;99.90;;;;;;5034781;28;20747;-75
2021/06/29 09:02:59;;;;;;;3.22;0.77;;;19.20;99.90;;;;;;5035191;28;20229;-73
2021/06/29 09:05:27;;;;;;;0.88;0.60;;;19.20;99.90;;;;;;5033587;28;20217;-73
2021/06/29 09:08:10;;;;;;;1.48;0.93;;;19.30;99.90;;;;;;5033783;28;20197;-73
2021/06/29 09:10:38;;;;;;;4.72;1.55;;;19.60;99.90;;;;;;5028066;28;20237;-73
2021/06/29 09:13:05;;;;;;;0.80;0.63;;;19.90;99.90;;;;;;5031519;28;20206;-74
2021/06/29 09:15:33;;;;;;;0.40;0.40;;;20.10;99.90;;;;;;5036352;28;20956;-74
2021/06/29 09:18:05;;;;;;;2.38;0.73;;;20.10;99.90;;;;;;5033725;28;20221;-73
2021/06/29 09:20:39;;;;;;;0.47;0.45;;;20.00;99.90;;;;;;5028831;28;20774;-74
2021/06/29 09:23:17;;;;;;;0.68;0.60;;;20.10;99.90;;;;;;5039228;28;20254;-73
2021/06/29 09:25:49;;;;;;;2.55;1.00;;;20.10;99.90;;;;;;5035133;28;20193;-72
2021/06/29 09:28:20;;;;;;;1.45;0.70;;;20.00;99.90;;;;;;5034633;28;21216;-72
2021/06/29 09:30:58;;;;;;;0.52;0.52;;;19.90;99.90;;;;;;5031765;28;20197;-74
2021/06/29 09:33:26;;;;;;;4.50;0.93;;;19.80;99.90;;;;;;5033532;28;20202;-73
2021/06/29 09:35:54;;;;;;;0.38;0.38;;;19.50;99.90;;;;;;5036845;28;20193;-73
2021/06/29 09:38:23;;;;;;;0.35;0.35;;;19.40;99.90;;;;;;5035956;28;20271;-74
2021/06/29 09:40:57;;;;;;;0.50;0.50;;;19.40;99.90;;;;;;5053762;28;20197;-74
2021/06/29 09:43:24;;;;;;;1.63;0.82;;;19.50;99.90;;;;;;5032013;28;20289;-72
2021/06/29 09:45:55;;;;;;;1.05;0.68;;;19.30;99.90;;;;;;5032789;28;20304;-73
2021/06/29 09:48:56;;;;;;;3.72;1.65;;;19.20;99.90;;;;;;5032195;28;20744;-74
2021/06/29 09:51:31;;;;;;;0.50;0.50;;;19.30;99.90;;;;;;5034152;28;20197;-73
2021/06/29 09:54:02;;;;;;;2.53;1.10;;;19.60;99.90;;;;;;5032048;28;20312;-74
2021/06/29 09:56:38;;;;;;;1.27;0.88;;;19.80;99.90;;;;;;5034281;28;20263;-73
2021/06/29 09:59:04;;;;;;;1.35;1.25;;;19.70;99.90;;;;;;5031305;28;20209;-75
2021/06/29 10:01:30;;;;;;;1.42;1.08;;;19.50;99.90;;;;;;5031659;28;20731;-74
2021/06/29 10:03:58;;;;;;;0.40;0.40;;;19.60;99.90;;;;;;5031927;28;20217;-73
2021/06/29 10:06:29;;;;;;;0.60;0.60;;;19.70;99.90;;;;;;5034917;28;20221;-76
2021/06/29 10:09:08;;;;;;;0.47;0.47;;;20.10;99.90;;;;;;5033854;28;20248;-73
2021/06/29 10:11:37;;;;;;;5.43;0.80;;;20.40;99.90;;;;;;5029767;28;20206;-74
2021/06/29 10:14:05;;;;;;;0.88;0.55;;;20.20;99.90;;;;;;5033635;28;20198;-72
2021/06/29 10:16:39;;;;;;;5.22;1.58;;;19.80;99.90;;;;;;5048105;28;20212;-72
2021/06/29 10:21:40;;;;;;;2.05;1.20;;;19.40;99.90;;;;;;5027889;28;20993;-72
2021/06/29 10:24:08;;;;;;;1.10;0.82;;;19.10;99.90;;;;;;5031235;28;20213;-72
2021/06/29 10:26:40;;;;;;;4.35;0.82;;;18.80;99.90;;;;;;5035066;28;20835;-72
2021/06/29 10:29:08;;;;;;;5.32;1.52;;;18.40;99.90;;;;;;5035163;28;20182;-72
2021/06/29 10:31:37;;;;;;;0.88;0.70;;;18.30;99.90;;;;;;5032338;28;20198;-72
2021/06/29 10:34:07;;;;;;;1.35;1.20;;;18.10;99.90;;;;;;5033256;28;20205;-72
2021/06/29 10:36:37;;;;;;;0.85;0.85;;;18.00;99.90;;;;;;5036537;28;20213;-72
2021/06/29 10:39:04;;;;;;;0.52;0.50;;;18.00;99.90;;;;;;5037161;28;20306;-72
2021/06/29 10:41:46;;;;;;;0.60;0.60;;;18.10;99.90;;;;;;5031938;28;20550;-72
2021/06/29 10:44:15;;;;;;;1.00;0.80;;;18.20;99.90;;;;;;5052700;28;21015;-72
2021/06/29 10:46:45;;;;;;;1.15;1.08;;;18.30;99.90;;;;;;5036242;28;20200;-72
2021/06/29 10:49:38;;;;;;;1.02;0.88;;;18.20;99.90;;;;;;5035928;28;20198;-72
2021/06/29 10:52:30;;;;;;;1.70;1.13;;;18.20;99.90;;;;;;5040765;28;20566;-72
2021/06/29 10:55:02;;;;;;;2.35;1.50;;;18.20;99.90;;;;;;5035115;28;20209;-72
2021/06/29 10:57:38;;;;;;;2.50;1.42;;;18.30;99.90;;;;;;5041209;28;20212;-72
2021/06/29 11:00:24;;;;;;;1.08;1.02;;;18.20;99.90;;;;;;5038877;28;20578;-72
2021/06/29 11:03:06;;;;;;;0.55;0.55;;;18.10;99.90;;;;;;5037322;28;20639;-72
2021/06/29 11:05:41;;;;;;;0.60;0.60;;;18.10;99.90;;;;;;5037212;28;20213;-71
2021/06/29 11:08:11;;;;;;;1.02;0.82;;;18.00;99.90;;;;;;5044209;28;20203;-72
2021/06/29 11:10:40;;;;;;;0.68;0.68;;;18.10;99.90;;;;;;5037577;28;20734;-72
2021/06/29 11:13:08;;;;;;;0.90;0.88;;;18.10;99.90;;;;;;5039622;28;20847;-72
2021/06/29 11:15:54;;;;;;;1.27;0.95;;;18.20;99.90;;;;;;5037017;28;20202;-72
2021/06/29 11:18:41;;;;;;;1.83;1.38;;;18.30;99.90;;;;;;5036465;28;20891;-72
2021/06/29 11:21:09;;;;;;;11.07;1.58;;;18.50;99.90;;;;;;5038902;28;20204;-72
2021/06/29 11:23:37;;;;;;;0.80;0.80;;;18.60;99.90;;;;;;5037288;28;20290;-72
2021/06/29 11:26:11;;;;;;;1.05;0.93;;;18.80;99.90;;;;;;5032249;28;20280;-72
2021/06/29 11:28:51;;;;;;;0.65;0.65;;;18.80;99.90;;;;;;5027334;28;20734;-72
2021/06/29 11:31:20;;;;;;;0.70;0.70;;;18.90;99.90;;;;;;5037582;28;20197;-72
2021/06/29 11:33:49;;;;;;;0.80;0.80;;;19.20;99.90;;;;;;5042232;28;20651;-72
2021/06/29 11:36:28;;;;;;;0.80;0.80;;;19.20;99.90;;;;;;5038893;28;20532;-72
2021/06/29 11:39:12;;;;;;;2.45;0.75;;;19.20;99.90;;;;;;5038937;28;20572;-72
2021/06/29 11:41:39;;;;;;;0.63;0.63;;;19.40;99.90;;;;;;5031898;28;20866;-72
2021/06/29 11:44:08;;;;;;;1.25;1.15;;;19.50;99.90;;;;;;5041497;28;20213;-72
2021/06/29 11:46:55;;;;;;;1.33;0.90;;;19.70;99.90;;;;;;5036231;28;20201;-72
2021/06/29 11:49:36;;;;;;;1.33;0.73;;;20.00;99.90;;;;;;5037294;28;20262;-72
2021/06/29 11:52:20;;;;;;;0.95;0.80;;;20.30;99.90;;;;;;5037925;28;20185;-72
2021/06/29 11:55:29;;;;;;;1.08;0.90;;;20.50;99.90;;;;;;5035871;28;20291;-74
2021/06/29 11:57:57;;;;;;;0.68;0.68;;;21.00;99.90;;;;;;5036082;28;20731;-74
2021/06/29 12:00:30;;;;;;;0.93;0.65;;;20.90;99.90;;;;;;5035344;28;20259;-74
2021/06/29 12:03:19;;;;;;;1.75;0.52;;;21.00;99.90;;;;;;5037047;28;20880;-72
2021/06/29 12:05:45;;;;;;;0.60;0.60;;;21.30;99.90;;;;;;5030146;28;20300;-72
2021/06/29 12:08:12;;;;;;;2.17;1.05;;;21.50;99.90;;;;;;5032872;28;20285;-74
2021/06/29 12:10:47;;;;;;;0.70;0.60;;;21.80;99.90;;;;;;5035059;28;20567;-72
2021/06/29 12:13:17;;;;;;;0.40;0.40;;;22.00;99.90;;;;;;5038396;28;20189;-73
2021/06/29 12:15:47;;;;;;;0.50;0.40;;;21.90;99.90;;;;;;5030684;28;20207;-72
2021/06/29 12:18:15;;;;;;;2.17;1.00;;;22.00;99.90;;;;;;5037849;28;21517;-73
2021/06/29 12:20:49;;;;;;;2.50;0.75;;;22.10;99.90;;;;;;5035853;28;20283;-72
2021/06/29 12:23:30;;;;;;;1.65;0.73;;;22.00;99.90;;;;;;5031544;28;20214;-73
2021/06/29 12:26:04;;;;;;;1.65;0.98;;;22.20;99.90;;;;;;5032741;28;20268;-72
2021/06/29 12:28:34;;;;;;;1.08;0.98;;;22.30;99.90;;;;;;5032590;28;21050;-73
2021/06/29 12:31:05;;;;;;;1.35;0.95;;;22.00;99.90;;;;;;5029802;28;21118;-72
2021/06/29 12:33:34;;;;;;;1.90;1.05;;;21.90;99.90;;;;;;5035599;28;20206;-75
2021/06/29 12:36:09;;;;;;;0.40;0.40;;;22.10;99.90;;;;;;5033565;28;20220;-74
2021/06/29 12:38:48;;;;;;;1.92;0.70;;;22.10;99.90;;;;;;5048265;28;20197;-73
2021/06/29 12:41:25;;;;;;;1.90;1.30;;;22.50;99.90;;;;;;5034473;28;20195;-72
2021/06/29 12:43:59;;;;;;;0.50;0.50;;;22.40;99.90;;;;;;5035800;28;20205;-74
2021/06/29 12:46:27;;;;;;;0.80;0.80;;;22.50;99.90;;;;;;5029612;28;20289;-73
2021/06/29 12:49:06;;;;;;;1.20;1.02;;;22.60;99.90;;;;;;5032078;28;20194;-75
2021/06/29 12:51:40;;;;;;;0.60;0.60;;;23.00;99.90;;;;;;5038239;28;20690;-74
2021/06/29 12:54:09;;;;;;;0.75;0.75;;;23.10;99.90;;;;;;5041078;28;20200;-72